createdAt,value
2018-01-26T00:00:17.493Z,5.20
2018-01-26T00:02:46.194Z,5.20
2018-01-26T00:05:14.885Z,5.20
2018-01-26T00:07:43.576Z,5.20
2018-01-26T00:10:13.029Z,5.20
2018-01-26T00:12:41.734Z,5.10
2018-01-26T00:15:10.426Z,5.10
2018-01-26T00:17:39.525Z,5.10
2018-01-26T00:20:08.422Z,5.10
2018-01-26T00:22:37.106Z,5.10
2018-01-26T00:25:05.791Z,5.10
2018-01-26T00:27:34.479Z,5.10
2018-01-26T00:30:03.158Z,5.10
2018-01-26T00:32:31.864Z,5.00
2018-01-26T00:35:00.558Z,5.00
2018-01-26T00:37:29.850Z,5.00
2018-01-26T00:39:58.545Z,5.00
2018-01-26T00:42:27.230Z,5.00
2018-01-26T00:44:55.912Z,5.00
2018-01-26T00:47:24.601Z,4.90
2018-01-26T00:49:53.289Z,4.90
2018-01-26T00:52:21.976Z,4.90
2018-01-26T00:54:51.083Z,4.90
2018-01-26T00:57:19.760Z,4.90
2018-01-26T00:59:48.445Z,4.80
2018-01-26T01:02:17.134Z,4.80
2018-01-26T01:04:45.821Z,4.80
2018-01-26T01:07:14.534Z,4.80
2018-01-26T01:09:43.232Z,4.80
2018-01-26T01:12:12.881Z,4.80
2018-01-26T01:14:41.569Z,4.70
2018-01-26T01:17:10.263Z,4.70
2018-01-26T01:19:38.944Z,4.70
2018-01-26T01:22:07.627Z,4.70
2018-01-26T01:24:36.337Z,4.70
2018-01-26T01:27:05.024Z,4.70
2018-01-26T01:29:34.028Z,4.70
2018-01-26T01:32:02.710Z,4.70
2018-01-26T01:34:31.397Z,4.70
2018-01-26T01:37:00.087Z,4.70
2018-01-26T01:39:28.783Z,4.70
2018-01-26T01:41:58.237Z,4.60
2018-01-26T01:44:26.921Z,4.60
2018-01-26T01:46:55.613Z,4.60
2018-01-26T01:49:24.304Z,4.60
2018-01-26T01:51:52.811Z,4.60
2018-01-26T01:54:21.174Z,4.60
2018-01-26T01:56:49.854Z,4.60
2018-01-26T01:59:18.541Z,4.60
2018-01-26T02:01:47.225Z,4.70
2018-01-26T02:04:15.918Z,4.70
2018-01-26T02:06:44.277Z,4.60
2018-01-26T02:09:13.729Z,4.60
2018-01-26T02:11:43.176Z,4.60
2018-01-26T02:14:11.865Z,4.60
2018-01-26T02:16:40.553Z,4.60
2018-01-26T02:19:09.233Z,4.60
2018-01-26T02:21:37.917Z,4.60
2018-01-26T02:24:06.612Z,4.60
2018-01-26T02:26:35.307Z,4.60
2018-01-26T02:29:04.011Z,4.60
2018-01-26T02:31:32.706Z,4.60
2018-01-26T02:34:01.400Z,4.60
2018-01-26T02:36:30.084Z,4.60
2018-01-26T02:38:58.772Z,4.60
2018-01-26T02:41:27.484Z,4.60
2018-01-26T02:43:56.173Z,4.60
2018-01-26T02:46:24.853Z,4.60
2018-01-26T02:48:53.541Z,4.60
2018-01-26T02:51:22.223Z,4.60
2018-01-26T02:53:50.909Z,4.60
2018-01-26T02:56:19.597Z,4.60
2018-01-26T02:58:48.288Z,4.60
2018-01-26T03:01:16.969Z,4.60
2018-01-26T03:03:45.658Z,4.60
2018-01-26T03:06:14.345Z,4.70
2018-01-26T03:08:43.030Z,4.60
2018-01-26T03:11:11.719Z,4.60
2018-01-26T03:13:40.410Z,4.60
2018-01-26T03:16:09.107Z,4.60
2018-01-26T03:18:38.561Z,4.60
2018-01-26T03:21:07.749Z,4.60
2018-01-26T03:23:36.432Z,4.60
2018-01-26T03:26:05.115Z,4.60
2018-01-26T03:28:33.608Z,4.60
2018-01-26T03:31:02.293Z,4.60
2018-01-26T03:33:30.972Z,4.60
2018-01-26T03:36:00.305Z,4.60
2018-01-26T03:38:29.005Z,4.60
2018-01-26T03:40:57.693Z,4.60
2018-01-26T03:43:26.401Z,4.60
2018-01-26T03:45:55.844Z,4.60
2018-01-26T03:48:25.300Z,4.60
2018-01-26T03:50:53.990Z,4.60
2018-01-26T03:53:22.673Z,4.60
2018-01-26T03:55:51.374Z,4.60
2018-01-26T03:58:21.537Z,4.60
2018-01-26T04:00:50.229Z,4.60
2018-01-26T04:03:18.935Z,4.50
2018-01-26T04:05:47.624Z,4.50
2018-01-26T04:08:16.309Z,4.60
2018-01-26T04:10:44.992Z,4.60
2018-01-26T04:13:13.685Z,4.60
2018-01-26T04:15:42.376Z,4.60
2018-01-26T04:18:11.062Z,4.60
2018-01-26T04:20:39.752Z,4.60
2018-01-26T04:23:08.437Z,4.50
2018-01-26T04:25:37.124Z,4.60
2018-01-26T04:28:05.824Z,4.60
2018-01-26T04:30:34.321Z,4.60
2018-01-26T04:33:03.019Z,4.60
2018-01-26T04:35:32.477Z,4.60
2018-01-26T04:38:01.152Z,4.60
2018-01-26T04:40:29.823Z,4.60
2018-01-26T04:42:58.510Z,4.60
2018-01-26T04:45:27.192Z,4.60
2018-01-26T04:47:55.870Z,4.60
2018-01-26T04:50:24.559Z,4.60
2018-01-26T04:52:53.241Z,4.60
2018-01-26T04:55:21.918Z,4.60
2018-01-26T04:57:51.373Z,4.60
2018-01-26T05:00:20.057Z,4.60
2018-01-26T05:02:48.745Z,4.60
2018-01-26T05:05:17.436Z,4.60
2018-01-26T05:07:46.134Z,4.60
2018-01-26T05:10:14.809Z,4.60
2018-01-26T05:12:43.497Z,4.60
2018-01-26T05:15:12.180Z,4.60
2018-01-26T05:17:40.865Z,4.60
2018-01-26T05:20:09.209Z,4.60
2018-01-26T05:22:37.899Z,4.60
2018-01-26T05:25:06.579Z,4.60
2018-01-26T05:27:36.021Z,4.60
2018-01-26T05:30:04.709Z,4.60
2018-01-26T05:32:33.403Z,4.60
2018-01-26T05:35:02.098Z,4.60
2018-01-26T05:37:31.389Z,4.60
2018-01-26T05:40:00.080Z,4.60
2018-01-26T05:42:28.789Z,4.60
2018-01-26T05:44:57.893Z,4.60
2018-01-26T05:47:27.415Z,4.70
2018-01-26T05:49:56.891Z,4.60
2018-01-26T05:52:25.588Z,4.60
2018-01-26T05:54:54.273Z,4.60
2018-01-26T05:57:22.961Z,4.70
2018-01-26T05:59:51.644Z,4.70
2018-01-26T06:02:20.329Z,4.60
2018-01-26T06:04:49.021Z,4.70
2018-01-26T06:07:19.361Z,4.70
2018-01-26T06:09:48.809Z,4.60
2018-01-26T06:12:17.533Z,4.60
2018-01-26T06:14:46.421Z,4.60
2018-01-26T06:17:14.924Z,4.60
2018-01-26T06:19:44.377Z,4.60
2018-01-26T06:22:14.430Z,4.60
2018-01-26T06:24:43.797Z,4.60
2018-01-26T06:27:12.292Z,4.60
2018-01-26T06:29:40.805Z,4.60
2018-01-26T06:32:09.482Z,4.60
2018-01-26T06:34:38.167Z,4.60
2018-01-26T06:37:07.412Z,4.60
2018-01-26T06:39:35.776Z,4.60
2018-01-26T06:42:05.234Z,4.70
2018-01-26T06:44:33.919Z,4.60
2018-01-26T06:47:02.613Z,4.60
2018-01-26T06:49:31.318Z,4.70
2018-01-26T06:51:59.726Z,4.60
2018-01-26T06:54:28.568Z,4.60
2018-01-26T06:56:57.258Z,4.60
2018-01-26T06:59:25.942Z,4.60
2018-01-26T07:01:54.624Z,4.60
2018-01-26T07:04:23.301Z,4.60
2018-01-26T07:06:52.770Z,4.60
2018-01-26T07:09:22.222Z,4.70
2018-01-26T07:11:50.909Z,4.70
2018-01-26T07:14:19.589Z,4.70
2018-01-26T07:16:48.193Z,4.60
2018-01-26T07:19:16.913Z,4.70
2018-01-26T07:21:45.464Z,4.70
2018-01-26T07:24:14.146Z,4.70
2018-01-26T07:26:42.841Z,4.70
2018-01-26T07:29:11.528Z,4.70
2018-01-26T07:31:40.217Z,4.70
2018-01-26T07:34:08.583Z,4.70
2018-01-26T07:36:37.281Z,4.70
2018-01-26T07:39:05.607Z,4.70
2018-01-26T07:41:34.296Z,4.70
2018-01-26T07:44:02.981Z,4.70
2018-01-26T07:46:32.232Z,4.80
2018-01-26T07:49:00.903Z,4.80
2018-01-26T07:51:29.595Z,4.80
2018-01-26T07:53:58.277Z,4.80
2018-01-26T07:56:26.988Z,4.80
2018-01-26T07:58:55.679Z,4.90
2018-01-26T08:01:25.757Z,4.80
2018-01-26T08:03:54.478Z,4.90
2018-01-26T08:06:22.978Z,4.90
2018-01-26T08:08:52.488Z,4.90
2018-01-26T08:11:20.988Z,4.90
2018-01-26T08:13:50.934Z,5.00
2018-01-26T08:16:19.617Z,5.00
2018-01-26T08:18:49.149Z,5.00
2018-01-26T08:21:17.842Z,5.10
2018-01-26T08:23:46.517Z,5.00
2018-01-26T08:26:15.211Z,5.10
2018-01-26T08:28:43.906Z,5.10
2018-01-26T08:31:12.589Z,5.10
2018-01-26T08:33:41.280Z,5.10
2018-01-26T08:36:10.008Z,5.20
2018-01-26T08:38:38.705Z,5.20
2018-01-26T08:41:07.389Z,5.20
2018-01-26T08:43:36.078Z,5.20
2018-01-26T08:46:04.767Z,5.20
2018-01-26T08:48:33.455Z,5.20
2018-01-26T08:51:03.105Z,5.30
2018-01-26T08:53:31.796Z,5.20
2018-01-26T08:56:00.307Z,5.30
2018-01-26T08:58:29.764Z,5.30
2018-01-26T09:00:58.449Z,5.30
2018-01-26T09:03:27.146Z,5.30
2018-01-26T09:05:55.829Z,5.30
2018-01-26T09:08:24.521Z,5.30
2018-01-26T09:10:53.214Z,5.40
2018-01-26T09:13:21.909Z,5.40
2018-01-26T09:15:50.284Z,5.40
2018-01-26T09:18:18.984Z,5.50
2018-01-26T09:20:48.439Z,5.50
2018-01-26T09:23:17.135Z,5.50
2018-01-26T09:25:45.815Z,5.50
2018-01-26T09:28:14.499Z,5.50
2018-01-26T09:30:42.844Z,5.50
2018-01-26T09:33:11.517Z,5.60
2018-01-26T09:35:40.188Z,5.60
2018-01-26T09:38:08.874Z,5.60
2018-01-26T09:40:37.243Z,5.60
2018-01-26T09:43:05.935Z,5.60
2018-01-26T09:45:34.624Z,5.70
2018-01-26T09:48:03.313Z,5.70
2018-01-26T09:50:32.002Z,5.70
2018-01-26T09:53:00.700Z,5.70
2018-01-26T09:55:29.435Z,5.70
2018-01-26T09:57:58.295Z,5.70
2018-01-26T10:00:27.422Z,5.80
2018-01-26T10:02:56.104Z,5.70
2018-01-26T10:05:25.978Z,5.80
2018-01-26T10:07:54.661Z,5.80
2018-01-26T10:10:23.373Z,5.80
2018-01-26T10:12:52.492Z,5.90
2018-01-26T10:15:21.949Z,5.90
2018-01-26T10:17:50.637Z,5.90
2018-01-26T10:20:19.329Z,5.90
2018-01-26T10:22:48.007Z,6.00
2018-01-26T10:25:16.681Z,6.00
2018-01-26T10:27:45.376Z,6.00
2018-01-26T10:30:14.070Z,6.10
2018-01-26T10:32:42.740Z,6.10
2018-01-26T10:35:11.482Z,6.20
2018-01-26T10:37:40.168Z,6.20
2018-01-26T10:40:09.629Z,6.40
2018-01-26T10:42:37.971Z,6.30
2018-01-26T10:45:06.656Z,6.40
2018-01-26T10:47:35.340Z,6.40
2018-01-26T10:50:04.020Z,6.50
2018-01-26T10:52:32.705Z,6.50
2018-01-26T10:55:02.159Z,6.60
2018-01-26T10:57:30.841Z,6.60
2018-01-26T10:59:59.561Z,6.60
2018-01-26T11:02:28.242Z,6.60
2018-01-26T11:04:56.938Z,6.70
2018-01-26T11:07:25.619Z,6.70
2018-01-26T11:09:54.316Z,6.70
2018-01-26T11:12:23.768Z,6.80
2018-01-26T11:14:52.441Z,6.70
2018-01-26T11:17:21.130Z,6.70
2018-01-26T11:19:49.822Z,6.70
2018-01-26T11:22:18.497Z,6.70
2018-01-26T11:24:47.190Z,6.70
2018-01-26T11:27:15.885Z,6.70
2018-01-26T11:29:44.569Z,6.80
2018-01-26T11:32:13.253Z,6.80
2018-01-26T11:34:41.951Z,6.90
2018-01-26T11:37:10.633Z,6.90
2018-01-26T11:39:39.334Z,6.90
2018-01-26T11:42:07.685Z,6.90
2018-01-26T11:44:36.357Z,6.90
2018-01-26T11:47:05.809Z,7.00
2018-01-26T11:49:34.484Z,7.00
2018-01-26T11:52:03.156Z,7.00
2018-01-26T11:54:31.844Z,7.00
2018-01-26T11:57:00.524Z,7.10
2018-01-26T11:59:29.205Z,7.00
2018-01-26T12:01:57.893Z,7.10
2018-01-26T12:04:26.581Z,7.10
2018-01-26T12:06:55.266Z,7.10
2018-01-26T12:09:24.716Z,7.10
2018-01-26T12:11:53.397Z,7.10
2018-01-26T12:14:22.082Z,7.10
2018-01-26T12:16:50.769Z,7.10
2018-01-26T12:19:19.281Z,7.10
2018-01-26T12:21:47.978Z,7.10
2018-01-26T12:24:17.270Z,7.10
2018-01-26T12:26:45.976Z,7.10
2018-01-26T12:29:15.233Z,7.20
2018-01-26T12:31:43.918Z,7.20
2018-01-26T12:34:12.597Z,7.20
2018-01-26T12:36:41.857Z,7.30
2018-01-26T12:39:11.317Z,7.30
2018-01-26T12:41:40.008Z,7.30
2018-01-26T12:44:08.690Z,7.30
2018-01-26T12:46:37.377Z,7.30
2018-01-26T12:49:06.060Z,7.30
2018-01-26T12:51:34.745Z,7.30
2018-01-26T12:54:03.427Z,7.30
2018-01-26T12:56:32.113Z,7.30
2018-01-26T12:59:00.797Z,7.30
2018-01-26T13:01:28.837Z,7.30
2018-01-26T13:03:57.529Z,7.20
2018-01-26T13:06:25.558Z,7.30
2018-01-26T13:08:55.140Z,7.30
2018-01-26T13:11:23.828Z,7.30
2018-01-26T13:13:52.515Z,7.30
2018-01-26T13:16:21.209Z,7.30
2018-01-26T13:18:49.914Z,7.30
2018-01-26T13:21:18.601Z,7.30
2018-01-26T13:23:47.310Z,7.30
2018-01-26T13:26:17.480Z,7.30
2018-01-26T13:28:46.174Z,7.30
2018-01-26T13:31:14.875Z,7.30
2018-01-26T13:33:43.569Z,7.30
2018-01-26T13:36:12.261Z,7.30
2018-01-26T13:38:40.952Z,7.30
2018-01-26T13:41:09.637Z,7.30
2018-01-26T13:43:38.127Z,7.20
2018-01-26T13:46:06.805Z,7.20
2018-01-26T13:48:35.497Z,7.20
2018-01-26T13:51:04.181Z,7.20
2018-01-26T13:56:27.541Z,7.20
2018-01-26T13:58:56.042Z,7.20
2018-01-26T14:01:24.732Z,7.20
2018-01-26T14:03:54.073Z,7.20
2018-01-26T14:06:22.754Z,7.20
2018-01-26T14:08:51.441Z,7.20
2018-01-26T14:11:20.124Z,7.30
2018-01-26T14:13:49.397Z,7.30
2018-01-26T14:16:18.081Z,7.20
2018-01-26T14:18:46.770Z,7.30
2018-01-26T14:21:15.277Z,7.30
2018-01-26T14:23:44.407Z,7.30
2018-01-26T14:26:13.101Z,7.20
2018-01-26T14:28:41.792Z,7.30
2018-01-26T14:31:10.472Z,7.30
2018-01-26T14:33:39.156Z,7.30
2018-01-26T14:36:07.853Z,7.30
2018-01-26T14:38:36.541Z,7.20
2018-01-26T14:41:04.560Z,7.20
2018-01-26T14:43:34.018Z,7.20
2018-01-26T14:46:02.705Z,7.20
2018-01-26T14:48:31.406Z,7.20
2018-01-26T14:51:00.091Z,7.20
2018-01-26T14:53:28.837Z,7.20
2018-01-26T14:55:57.481Z,7.20
2018-01-26T14:58:26.165Z,7.20
2018-01-26T15:00:54.862Z,7.20
2018-01-26T15:03:23.545Z,7.20
2018-01-26T15:05:52.229Z,7.10
2018-01-26T15:08:20.917Z,7.10
2018-01-26T15:10:49.600Z,7.10
2018-01-26T15:13:18.331Z,7.10
2018-01-26T15:15:47.234Z,7.10
2018-01-26T15:18:15.912Z,7.00
2018-01-26T15:20:44.779Z,7.10
2018-01-26T15:23:14.240Z,7.00
2018-01-26T15:25:42.916Z,7.00
2018-01-26T15:28:11.419Z,7.00
2018-01-26T15:30:40.121Z,7.00
2018-01-26T15:33:08.814Z,7.00
2018-01-26T15:35:37.488Z,7.00
2018-01-26T15:38:05.512Z,7.00
2018-01-26T15:40:34.201Z,7.00
2018-01-26T15:43:02.913Z,7.00
2018-01-26T15:45:31.272Z,7.00
2018-01-26T15:47:59.954Z,6.90
2018-01-26T15:50:28.638Z,6.90
2018-01-26T15:52:57.323Z,6.90
2018-01-26T15:55:25.383Z,6.90
2018-01-26T15:57:54.658Z,6.80
2018-01-26T16:00:23.788Z,6.80
2018-01-26T16:02:52.474Z,6.80
2018-01-26T16:05:21.160Z,6.80
2018-01-26T16:07:49.540Z,6.70
2018-01-26T16:10:18.230Z,6.70
2018-01-26T16:12:46.931Z,6.60
2018-01-26T16:15:15.625Z,6.60
2018-01-26T16:17:43.652Z,6.60
2018-01-26T16:20:13.098Z,6.60
2018-01-26T16:22:41.790Z,6.60
2018-01-26T16:25:10.148Z,6.60
2018-01-26T16:27:38.175Z,6.60
2018-01-26T16:30:06.190Z,6.50
2018-01-26T16:32:34.865Z,6.50
2018-01-26T16:35:03.981Z,6.50
2018-01-26T16:37:32.664Z,6.50
2018-01-26T16:40:01.354Z,6.50
2018-01-26T16:42:30.038Z,6.50
2018-01-26T16:44:58.717Z,6.50
2018-01-26T16:47:27.401Z,6.50
2018-01-26T16:49:56.081Z,6.40
2018-01-26T16:52:25.529Z,7.30
2018-01-26T16:54:54.223Z,7.30
2018-01-26T17:00:10.957Z,8.40
2018-01-26T17:02:40.174Z,8.10
2018-01-26T17:05:08.850Z,7.70
2018-01-26T17:07:37.529Z,7.40
2018-01-26T17:10:06.222Z,7.10
2018-01-26T17:12:34.990Z,7.00
2018-01-26T17:15:03.182Z,6.90
2018-01-26T17:17:31.879Z,6.80
2018-01-26T17:20:01.871Z,6.70
2018-01-26T17:22:30.596Z,6.60
2018-01-26T17:24:58.945Z,6.70
2018-01-26T17:27:27.644Z,6.60
2018-01-26T17:29:55.672Z,6.60
2018-01-26T17:32:29.844Z,6.50
2018-01-26T17:34:58.712Z,6.50
2018-01-26T17:37:27.392Z,6.50
2018-01-26T17:39:56.078Z,6.40
2018-01-26T17:42:23.946Z,6.50
2018-01-26T17:44:52.629Z,6.40
2018-01-26T17:47:21.322Z,6.40
2018-01-26T17:49:49.677Z,6.40
2018-01-26T17:52:18.360Z,6.30
2018-01-26T17:54:47.050Z,6.40
2018-01-26T17:57:15.550Z,6.30
2018-01-26T17:59:44.063Z,6.30
2018-01-26T18:02:12.580Z,6.30
2018-01-26T18:04:41.833Z,6.30
2018-01-26T18:07:10.608Z,6.30
2018-01-26T18:09:39.310Z,6.30
2018-01-26T18:12:08.009Z,6.20
2018-01-26T18:14:36.697Z,6.20
2018-01-26T18:17:05.189Z,6.20
2018-01-26T18:19:33.901Z,6.20
2018-01-26T18:22:02.790Z,6.20
2018-01-26T18:24:32.495Z,6.30
2018-01-26T18:27:02.862Z,6.20
2018-01-26T18:29:32.384Z,6.20
2018-01-26T18:32:01.069Z,6.30
2018-01-26T18:34:29.561Z,6.30
2018-01-26T18:36:58.236Z,6.30
2018-01-26T18:39:26.917Z,6.20
2018-01-26T18:41:55.613Z,6.20
2018-01-26T18:44:24.104Z,6.20
2018-01-26T18:46:52.827Z,6.20
2018-01-26T18:49:22.272Z,6.10
2018-01-26T18:51:51.641Z,6.10
2018-01-26T18:54:20.340Z,6.20
2018-01-26T18:56:49.022Z,6.10
2018-01-26T18:59:17.701Z,6.20
2018-01-26T19:01:47.161Z,6.20
2018-01-26T19:04:15.841Z,6.20
2018-01-26T19:06:44.533Z,6.20
2018-01-26T19:09:13.234Z,6.30
2018-01-26T19:11:41.931Z,6.30
2018-01-26T19:14:10.612Z,6.20
2018-01-26T19:16:39.306Z,6.20
2018-01-26T19:19:07.996Z,6.20
2018-01-26T19:21:36.683Z,6.10
2018-01-26T19:24:05.370Z,6.10
2018-01-26T19:26:34.872Z,6.20
2018-01-26T19:29:04.088Z,6.20
2018-01-26T19:31:34.261Z,6.20
2018-01-26T19:34:02.624Z,6.10
2018-01-26T19:36:31.317Z,6.20
2018-01-26T19:38:59.992Z,6.20
2018-01-26T19:41:28.672Z,6.10
2018-01-26T19:43:57.362Z,6.10
2018-01-26T19:46:26.821Z,6.10
2018-01-26T19:48:55.501Z,6.10
2018-01-26T19:51:24.307Z,6.10
2018-01-26T19:53:52.988Z,6.10
2018-01-26T19:56:21.673Z,6.10
2018-01-26T19:58:50.361Z,6.10
2018-01-26T20:01:19.044Z,6.10
2018-01-26T20:03:58.859Z,6.10
2018-01-26T20:09:37.320Z,6.20
2018-01-26T20:12:12.813Z,6.20
2018-01-26T20:14:41.013Z,6.10
2018-01-26T20:17:09.457Z,6.10
2018-01-26T20:19:37.968Z,6.10
2018-01-26T20:24:40.490Z,6.10
2018-01-26T20:27:29.256Z,6.00
2018-01-26T20:30:00.956Z,6.00
2018-01-26T20:32:29.372Z,6.00
2018-01-26T20:34:58.096Z,6.00
2018-01-26T20:37:35.302Z,6.00
2018-01-26T20:40:04.131Z,6.00
2018-01-26T20:42:32.888Z,6.00
2018-01-26T20:45:02.470Z,6.00
2018-01-26T20:47:31.749Z,6.00
2018-01-26T20:50:00.500Z,6.00
2018-01-26T20:52:29.199Z,5.90
2018-01-26T20:54:57.893Z,6.00
2018-01-26T20:57:27.798Z,5.90
2018-01-26T21:00:06.458Z,5.90
2018-01-26T21:05:53.661Z,5.90
2018-01-26T21:08:22.383Z,5.90
2018-01-26T21:16:57.392Z,5.80
2018-01-26T21:19:47.815Z,5.80
2018-01-26T21:22:28.233Z,5.80
2018-01-26T21:41:55.788Z,5.60
2018-01-26T21:44:24.882Z,5.50
2018-01-26T21:46:53.589Z,5.50
2018-01-26T21:49:22.290Z,5.50
2018-01-26T21:51:51.809Z,5.50
2018-01-26T21:54:21.265Z,5.40
2018-01-26T21:56:49.612Z,5.40
2018-01-26T21:59:18.819Z,5.40
2018-01-26T22:01:48.541Z,5.40
2018-01-26T22:04:17.040Z,5.50
2018-01-26T22:06:51.251Z,5.50
2018-01-26T22:09:20.806Z,5.50
2018-01-26T22:11:50.255Z,5.60
2018-01-26T22:14:18.612Z,5.50
2018-01-26T22:16:46.979Z,5.60
2018-01-26T22:19:16.438Z,5.60
2018-01-26T22:21:45.146Z,5.60
2018-01-26T22:24:13.852Z,5.60
2018-01-26T22:26:43.309Z,5.60
2018-01-26T22:29:12.004Z,5.60
2018-01-26T22:31:40.685Z,5.60
2018-01-26T22:34:09.374Z,5.60
2018-01-26T22:36:38.057Z,5.50
2018-01-26T22:39:06.745Z,5.60
2018-01-26T22:41:35.432Z,5.60
2018-01-26T22:44:04.125Z,5.60
2018-01-26T22:46:32.822Z,5.60
2018-01-26T22:49:01.505Z,5.60
2018-01-26T22:51:30.196Z,5.60
2018-01-26T22:53:58.880Z,5.60
2018-01-26T22:56:27.565Z,5.60
2018-01-26T22:58:56.265Z,5.60
2018-01-26T23:01:26.465Z,5.50
2018-01-26T23:03:55.148Z,5.60
2018-01-26T23:06:23.837Z,5.50
2018-01-26T23:08:52.520Z,5.50
2018-01-26T23:11:21.214Z,5.40
2018-01-26T23:13:49.904Z,5.40
2018-01-26T23:16:18.651Z,5.40
2018-01-26T23:18:47.338Z,5.40
2018-01-26T23:21:16.025Z,5.40
2018-01-26T23:23:44.719Z,5.30
2018-01-26T23:26:13.069Z,5.30
2018-01-26T23:28:42.533Z,5.20
2018-01-26T23:31:11.285Z,5.20
2018-01-26T23:33:40.114Z,5.20
2018-01-26T23:36:08.477Z,5.20
2018-01-26T23:38:37.176Z,5.30
2018-01-26T23:41:05.865Z,5.30
2018-01-26T23:43:34.552Z,5.30
2018-01-26T23:46:03.240Z,5.40
2018-01-26T23:48:31.921Z,5.40
2018-01-26T23:51:00.419Z,5.40
2018-01-26T23:53:29.113Z,5.40
2018-01-26T23:55:57.800Z,5.40
2018-01-26T23:58:26.492Z,5.40
